Zebulon, Georgia
Current Conditions -  °F | °C
As of 1:55 PM on Saturday 25 Oct 2014 (Local Time) from K6A2 Reporting Station
Clear Clear  
Wind Chill: 21°   Ceiling: Unl
Heat Index: 21°   Visibility: 10mi
Dew Point:   Wind: 3mph
Humidity: 38%   Direction: 290°WNW
Pressure: 30.04"   Gusts: NA
Location:  33.1°N, 84.34°W
Report Text: K6A2 251755Z AUTO 29003KT 10SM CLR 21/06 A3004 RMK AO2
Loading
Personal Weather Stations






























Interactive Weather Map
Tropical Storm Tracking
New forecast layout! Learn more

10-Day Weather Forecast

Advertisements
Track Severe Weather on mobile